Eastern Sierra Regional Airport
KBIH : rendu visible

Aérodrome :











RETROUVEZ-NOUS SUR...

 
LOGIN :

S'inscrire | Disclaimer

   EN    FR    IT 

 









Légende :    VFR   VFR Marginal   IFR   IFR Intensif   IFR Très Intensif
Visi : 
Plafond : 
>= 8 km
>= 3000ft
5 à 8 km
1000 à 3000 ft
1500m à 5 km
500 à 1000 ft
800 à 1500m
200 à 500 ft
< 800m
< 200 ft
Symboles :   Orages  Brouillard  Fortes neiges  Fortes précipitations  Vent > 20 kt






- Altitude de l'aérodrome : 4124 ft


KBIH - Eastern Sierra Regional

DERNIER METAR :
  • 172356Z AUTO 23003KT 10SM CLR 07/M08 A3022 RMK AO2 SLP239 T00721083 10078 20011 53003

METARs EXPIRÉS :
  • 172256Z AUTO 19003KT 10SM CLR 07/M08 A3021 RMK AO2 SLP229 T00721083
  • 172156Z AUTO 13003KT 10SM CLR 07/M10 A3020 RMK AO2 SLP226 T00721100

TAF KBIH
Valide du 18 à 00h jusqu'au 19 à 00h UTC


172320Z 1800/1824 VRB05KT P6SM SCT120 BKN250
FM180200 32006KT P6SM FEW120 BKN250



MET'MAP, la Météo Aéronautique d'un coup d'oeil ! - Copyright ORBIFLY Décembre 2007 - Disclaimer

ORBIFLY MET'MAP TEAM :

Programmation & Développement : Alexandra Zaïnal
Sur une idée originale de : Baudouin d'Aumeries
Assistance à la programmation : Marc-Olivier Méhu
Soutien technique & logistique : Manuel Goepfert

Contact : metmap@orbifly.com




SOURCES & CREDITS :

   NOAA       Earth
Advisory